Hlavní strana
METAR-TAF:

METAR-TAF

Letiště :

Mezinárodní letiště Gibraltar

Gibraltar, Gibraltar

zeměpisná šířka: 36-09N, zeměpisná délka: 005-21W, výška: 5 m

Aktuální stav počasí

Zpráva byla vytvořena před 1 hodinou a 1 minutami, v 09:50 UTC
Východní vítr 5 kt
Teplota 23°C
Vlhkost vzduchu 73%
Tlak 1014 hPa
Viditelnost 10 km a více
Žádná oblačnost pod 1500 m, nevyskytují se cumulonimby.

METAR: LXGB 220950Z 10005KT CAVOK 23/18 Q1014 NOSIG

Čas: 12:51 (10:51 UTC)

Předpověď počasí

Zpráva byla vytvořena před 2 hodinami a 58 minutami, v 07:53 UTC
Předpověď platná od 22 v 09 UTC do 22 v 18 UTC
vítr z různých směrů 6 kt
Viditelnost 10 km a více
Skoro jasno ve výšce 2500 ft
Pravděpodobnost 30% :
Dočasný
od 22 v 10 UTC do 22 v 18 UTC
Jižní vítr 14 kt

TAF: LXGB 220753Z 2209/2218 VRB06KT 9999 FEW025 PROB30 TEMPO 2210/2218 18014KT 520001

Stav a předpovědi počasí z více než 4 000 letišť (zprávy METAR a TAF).

Červené a žluté tečky na mapě představují dostupné meteorologické stanice.

Když kurzor umístíte na tečku, zobrazí se název stanice.

Pak kliknutím zobrazíte stav a předpověď počasí.

Chcete-li změnit mapu, kliknutím na zelené tlačítko se znaménkem +mapu přiblížíte, kliknutím na zelené tlačítko se znaménkem – mapu oddálíte a kliknutím na zelené šipky přejdete na sousední mapy.


METAR-TAF: